createdAt,value
2023-03-24T00:00:09.053Z,14.60
2023-03-24T00:02:37.874Z,14.70
2023-03-24T00:05:05.645Z,14.60
2023-03-24T00:07:35.429Z,14.70
2023-03-24T00:10:02.379Z,14.70
2023-03-24T00:12:29.124Z,14.70
2023-03-24T00:14:55.887Z,14.70
2023-03-24T00:17:25.365Z,14.60
2023-03-24T00:19:52.947Z,14.80
2023-03-24T00:22:21.390Z,14.70
2023-03-24T00:24:49.658Z,14.70
2023-03-24T00:27:17.764Z,14.80
2023-03-24T00:29:44.711Z,14.70
2023-03-24T00:32:11.649Z,14.70
2023-03-24T00:34:38.684Z,14.70
2023-03-24T00:37:06.488Z,14.70
2023-03-24T00:39:33.534Z,14.60
2023-03-24T00:42:01.882Z,14.60
2023-03-24T00:44:28.937Z,14.60
2023-03-24T00:46:55.867Z,14.60
2023-03-24T00:49:44.690Z,14.60
2023-03-24T00:52:20.704Z,14.60
2023-03-24T00:54:52.187Z,14.60
2023-03-24T00:57:22.317Z,14.40
2023-03-24T00:59:50.750Z,14.60
2023-03-24T01:02:22.314Z,14.60
2023-03-24T01:05:02.437Z,14.80
2023-03-24T01:07:32.529Z,14.60
2023-03-24T01:09:59.817Z,14.70
2023-03-24T01:12:32.675Z,14.60
2023-03-24T01:15:01.369Z,14.70
2023-03-24T01:17:29.706Z,14.60
2023-03-24T01:19:57.288Z,14.60
2023-03-24T01:22:30.458Z,14.90
2023-03-24T01:24:57.343Z,14.70
2023-03-24T01:27:24.224Z,14.50
2023-03-24T01:29:51.117Z,14.80
2023-03-24T01:32:17.941Z,14.90
2023-03-24T01:34:44.709Z,14.50
2023-03-24T01:37:11.551Z,14.70
2023-03-24T01:39:38.380Z,14.80
2023-03-24T01:42:05.218Z,14.80
2023-03-24T01:44:37.118Z,14.60
2023-03-24T01:47:07.140Z,14.70
2023-03-24T01:49:57.732Z,14.80
2023-03-24T01:52:31.122Z,14.80
2023-03-24T01:55:08.010Z,15.00
2023-03-24T01:57:42.985Z,14.70
2023-03-24T02:00:13.439Z,14.90
2023-03-24T02:02:49.609Z,14.80
2023-03-24T02:05:17.689Z,14.70
2023-03-24T02:08:01.657Z,14.80
2023-03-24T02:10:33.196Z,15.00
2023-03-24T02:13:00.021Z,14.80
2023-03-24T02:15:30.452Z,14.90
2023-03-24T02:18:08.317Z,14.80
2023-03-24T02:21:03.960Z,14.70
2023-03-24T02:24:01.529Z,14.80
2023-03-24T02:26:48.489Z,14.70
2023-03-24T02:29:44.440Z,14.70
2023-03-24T02:32:48.865Z,14.80
2023-03-24T02:35:24.823Z,15.00
2023-03-24T02:38:10.493Z,14.70
2023-03-24T02:40:55.996Z,14.70
2023-03-24T02:43:57.100Z,14.90
2023-03-24T02:46:35.892Z,14.60
2023-03-24T02:49:42.554Z,14.90
2023-03-24T02:52:39.102Z,14.90
2023-03-24T02:55:26.491Z,15.10
2023-03-24T02:57:58.820Z,14.90
2023-03-24T03:00:32.452Z,14.80
2023-03-24T03:03:05.879Z,14.90
2023-03-24T03:05:49.110Z,14.80
2023-03-24T03:08:18.219Z,14.90
2023-03-24T03:10:48.742Z,15.10
2023-03-24T03:13:40.181Z,15.10
2023-03-24T03:16:18.945Z,15.20
2023-03-24T03:18:51.803Z,15.00
2023-03-24T03:21:22.554Z,15.10
2023-03-24T03:24:02.126Z,15.10
2023-03-24T03:26:32.649Z,14.80
2023-03-24T03:29:05.317Z,15.00
2023-03-24T03:31:41.914Z,14.90
2023-03-24T03:34:28.456Z,14.90
2023-03-24T03:37:09.736Z,15.10
2023-03-24T03:39:46.669Z,14.90
2023-03-24T03:42:13.633Z,14.90
2023-03-24T03:44:40.609Z,14.90
2023-03-24T03:47:07.484Z,14.70
2023-03-24T03:49:34.277Z,14.70
2023-03-24T03:52:01.133Z,14.80
2023-03-24T03:54:30.814Z,14.80
2023-03-24T03:56:59.559Z,14.90
2023-03-24T03:59:35.668Z,15.00
2023-03-24T04:02:11.707Z,14.80
2023-03-24T04:05:05.781Z,14.80
2023-03-24T04:07:58.180Z,14.80
2023-03-24T04:10:44.614Z,14.80
2023-03-24T04:13:40.688Z,14.70
2023-03-24T04:16:17.941Z,14.80
2023-03-24T04:18:53.945Z,14.80
2023-03-24T04:21:42.729Z,14.60
2023-03-24T04:24:29.063Z,14.80
2023-03-24T04:27:06.568Z,15.10
2023-03-24T04:29:47.919Z,14.80
2023-03-24T04:32:36.774Z,15.00
2023-03-24T04:35:10.126Z,15.00
2023-03-24T04:37:38.283Z,14.90
2023-03-24T04:40:11.266Z,14.90
2023-03-24T04:42:45.597Z,14.60
2023-03-24T04:45:14.157Z,14.70
2023-03-24T04:47:47.690Z,14.90
2023-03-24T04:50:30.333Z,14.90
2023-03-24T04:52:58.494Z,14.80
2023-03-24T04:55:25.159Z,14.80
2023-03-24T04:57:52.210Z,14.70
2023-03-24T05:00:19.093Z,14.70
2023-03-24T05:02:45.841Z,14.70
2023-03-24T05:05:12.811Z,14.70
2023-03-24T05:07:40.022Z,15.10
2023-03-24T05:10:07.753Z,14.90
2023-03-24T05:12:34.543Z,15.00
2023-03-24T05:15:01.565Z,15.00
2023-03-24T05:17:28.645Z,14.90
2023-03-24T05:19:55.512Z,15.10
2023-03-24T05:22:22.262Z,14.90
2023-03-24T05:24:49.046Z,14.90
2023-03-24T05:27:16.135Z,14.80
2023-03-24T05:29:42.897Z,14.80
2023-03-24T05:32:09.692Z,14.50
2023-03-24T05:34:36.551Z,14.70
2023-03-24T05:37:03.341Z,14.90
2023-03-24T05:39:30.270Z,14.70
2023-03-24T05:41:57.069Z,15.00
2023-03-24T05:44:23.828Z,14.70
2023-03-24T05:46:50.517Z,14.80
2023-03-24T05:49:17.193Z,14.70
2023-03-24T05:51:43.917Z,14.60
2023-03-24T05:54:10.689Z,14.70
2023-03-24T05:56:37.580Z,14.80
2023-03-24T05:59:04.325Z,14.40
2023-03-24T06:01:31.131Z,14.60
2023-03-24T06:03:58.040Z,14.50
2023-03-24T06:06:26.378Z,14.70
2023-03-24T06:08:54.616Z,14.20
2023-03-24T06:11:21.566Z,14.10
2023-03-24T06:13:48.769Z,14.40
2023-03-24T06:16:18.808Z,14.20
2023-03-24T06:18:53.150Z,14.30
2023-03-24T06:21:20.863Z,14.00
2023-03-24T06:23:47.983Z,14.10
2023-03-24T06:26:16.738Z,14.10
2023-03-24T06:28:43.583Z,14.10
2023-03-24T06:31:15.197Z,14.20
2023-03-24T06:33:42.619Z,14.20
2023-03-24T06:36:11.231Z,14.10
2023-03-24T06:38:38.247Z,14.30
2023-03-24T06:41:05.953Z,14.10
2023-03-24T06:43:33.229Z,14.20
2023-03-24T06:46:01.105Z,14.10
2023-03-24T06:48:28.908Z,14.10
2023-03-24T06:50:56.328Z,14.10
2023-03-24T06:53:23.151Z,14.30
2023-03-24T06:55:50.686Z,14.30
2023-03-24T06:58:18.001Z,14.00
2023-03-24T07:00:46.885Z,14.10
2023-03-24T07:03:16.135Z,14.20
2023-03-24T07:05:45.161Z,14.00
2023-03-24T07:10:43.838Z,14.10
2023-03-24T07:13:10.811Z,14.10
2023-03-24T07:15:37.928Z,14.10
2023-03-24T07:18:04.861Z,14.00
2023-03-24T07:20:32.018Z,13.70
2023-03-24T07:22:58.822Z,13.70
2023-03-24T07:25:25.854Z,13.80
2023-03-24T07:27:56.530Z,13.90
2023-03-24T07:30:33.453Z,14.00
2023-03-24T07:33:07.936Z,13.70
2023-03-24T07:35:35.324Z,13.80
2023-03-24T07:38:02.341Z,13.70
2023-03-24T07:40:30.334Z,13.90
2023-03-24T07:43:01.230Z,14.10
2023-03-24T07:45:28.577Z,13.90
2023-03-24T07:47:57.354Z,14.10
2023-03-24T07:50:24.199Z,14.10
2023-03-24T07:52:51.196Z,14.20
2023-03-24T07:55:17.999Z,14.20
2023-03-24T07:57:49.299Z,14.20
2023-03-24T08:00:20.300Z,14.10
2023-03-24T08:02:52.177Z,14.20
2023-03-24T08:05:20.773Z,14.10
2023-03-24T08:07:55.910Z,14.30
2023-03-24T08:10:25.583Z,14.20
2023-03-24T08:12:52.638Z,14.20
2023-03-24T08:15:19.635Z,14.10
2023-03-24T08:17:48.821Z,14.10
2023-03-24T08:20:16.082Z,14.30
2023-03-24T08:22:44.925Z,14.20
2023-03-24T08:25:13.050Z,14.40
2023-03-24T08:27:43.372Z,14.60
2023-03-24T08:30:11.520Z,14.50
2023-03-24T08:32:43.007Z,14.50
2023-03-24T08:35:14.435Z,14.60
2023-03-24T08:37:43.287Z,14.40
2023-03-24T08:40:13.477Z,14.60
2023-03-24T08:42:41.682Z,14.60
2023-03-24T08:45:10.923Z,14.40
2023-03-24T08:47:37.727Z,14.70
2023-03-24T08:50:05.906Z,14.60
2023-03-24T08:52:32.774Z,14.60
2023-03-24T08:54:59.705Z,14.80
2023-03-24T08:57:26.829Z,15.20
2023-03-24T08:59:53.530Z,15.20
2023-03-24T09:02:20.341Z,15.00
2023-03-24T09:04:47.480Z,14.70
2023-03-24T09:07:14.286Z,14.80
2023-03-24T09:09:41.119Z,14.90
2023-03-24T09:12:09.690Z,15.30
2023-03-24T09:14:36.625Z,15.20
2023-03-24T09:17:04.693Z,15.00
2023-03-24T09:19:32.061Z,15.10
2023-03-24T09:21:58.815Z,15.00
2023-03-24T09:24:25.669Z,15.20
2023-03-24T09:26:52.512Z,15.20
2023-03-24T09:29:19.252Z,15.50
2023-03-24T09:31:46.473Z,15.30
2023-03-24T09:34:13.268Z,15.50
2023-03-24T09:36:40.074Z,15.40
2023-03-24T09:39:07.024Z,15.50
2023-03-24T09:41:34.650Z,15.50
2023-03-24T09:44:18.017Z,15.80
2023-03-24T09:47:20.170Z,15.70
2023-03-24T09:49:48.572Z,15.70
2023-03-24T09:52:22.768Z,15.70
2023-03-24T09:55:03.965Z,16.10
2023-03-24T09:57:43.532Z,15.70
2023-03-24T10:00:21.394Z,15.70
2023-03-24T10:02:50.403Z,15.30
2023-03-24T10:05:22.975Z,15.50
2023-03-24T10:08:19.202Z,15.50
2023-03-24T10:11:04.568Z,15.70
2023-03-24T10:14:04.334Z,15.70
2023-03-24T10:16:40.406Z,15.50
2023-03-24T10:19:22.345Z,15.60
2023-03-24T10:22:18.144Z,15.60
2023-03-24T10:24:56.946Z,15.70
2023-03-24T10:27:36.309Z,15.40
2023-03-24T10:30:43.962Z,15.50
2023-03-24T10:33:13.466Z,15.70
2023-03-24T10:35:45.850Z,15.60
2023-03-24T10:38:18.787Z,15.60
2023-03-24T10:40:47.248Z,15.90
2023-03-24T10:43:15.764Z,15.90
2023-03-24T10:45:49.375Z,15.90
2023-03-24T10:48:40.236Z,15.70
2023-03-24T10:51:13.717Z,15.60
2023-03-24T10:53:40.401Z,15.50
2023-03-24T10:56:07.685Z,15.60
2023-03-24T10:58:43.077Z,15.60
2023-03-24T11:01:30.724Z,15.70
2023-03-24T11:04:05.008Z,16.00
2023-03-24T11:06:32.496Z,15.80
2023-03-24T11:09:20.728Z,15.70
2023-03-24T11:11:47.969Z,15.80
2023-03-24T11:14:28.019Z,15.80
2023-03-24T11:17:15.950Z,16.00
2023-03-24T11:19:53.779Z,15.60
2023-03-24T11:22:21.584Z,15.60
2023-03-24T11:24:55.005Z,15.80
2023-03-24T11:27:22.001Z,15.80
2023-03-24T11:29:54.169Z,15.70
2023-03-24T11:32:25.222Z,15.90
2023-03-24T11:35:01.475Z,15.80
2023-03-24T11:37:36.146Z,15.80
2023-03-24T11:40:21.724Z,16.00
2023-03-24T11:42:51.078Z,15.90
2023-03-24T11:45:21.130Z,15.70
2023-03-24T11:47:49.671Z,15.80
2023-03-24T11:50:32.154Z,15.80
2023-03-24T11:53:18.084Z,15.50
2023-03-24T11:55:53.593Z,15.70
2023-03-24T11:59:07.908Z,15.90
2023-03-24T12:01:39.780Z,15.60
2023-03-24T12:04:29.288Z,15.50
2023-03-24T12:07:16.287Z,15.70
2023-03-24T12:09:56.044Z,16.00
2023-03-24T12:12:33.596Z,15.80
2023-03-24T12:15:26.730Z,15.70
2023-03-24T12:18:25.694Z,15.80
2023-03-24T12:21:04.670Z,15.90
2023-03-24T12:23:39.788Z,16.00
2023-03-24T12:26:18.430Z,16.00
2023-03-24T12:28:52.990Z,16.20
2023-03-24T12:31:46.495Z,16.20
2023-03-24T12:34:50.042Z,16.30
2023-03-24T12:37:52.126Z,16.40
2023-03-24T12:40:48.098Z,16.40
2023-03-24T12:43:17.585Z,16.40
2023-03-24T12:45:55.134Z,16.50
2023-03-24T12:48:33.964Z,16.70
2023-03-24T12:51:09.806Z,16.70
2023-03-24T12:53:36.920Z,16.70
2023-03-24T12:56:20.640Z,16.70
2023-03-24T12:58:55.604Z,16.60
2023-03-24T13:01:47.145Z,16.70
2023-03-24T13:04:34.670Z,16.70
2023-03-24T13:07:12.700Z,16.80
2023-03-24T13:09:48.594Z,16.80
2023-03-24T13:12:24.149Z,16.80
2023-03-24T13:14:53.962Z,16.90
2023-03-24T13:17:28.361Z,16.80
2023-03-24T13:19:56.757Z,17.00
2023-03-24T13:22:26.002Z,17.10
2023-03-24T13:24:54.724Z,16.90
2023-03-24T13:27:26.693Z,17.00
2023-03-24T13:30:14.848Z,17.00
2023-03-24T13:32:53.886Z,17.10
2023-03-24T13:35:59.262Z,17.00
2023-03-24T13:38:29.117Z,17.00
2023-03-24T13:40:56.559Z,16.70
2023-03-24T13:43:30.772Z,16.50
2023-03-24T13:46:03.360Z,16.60
2023-03-24T13:48:41.745Z,16.60
2023-03-24T13:51:30.930Z,16.80
2023-03-24T13:54:09.867Z,16.60
2023-03-24T13:56:53.075Z,16.80
2023-03-24T13:59:28.694Z,16.70
2023-03-24T14:02:13.921Z,16.90
2023-03-24T14:05:20.611Z,16.90
2023-03-24T14:07:50.009Z,17.00
2023-03-24T14:10:17.298Z,17.10
2023-03-24T14:13:00.547Z,17.20
2023-03-24T14:15:41.100Z,17.20
2023-03-24T14:18:21.245Z,17.40
2023-03-24T14:20:57.063Z,17.30
2023-03-24T14:23:43.303Z,17.60
2023-03-24T14:26:23.271Z,17.50
2023-03-24T14:28:57.773Z,17.50
2023-03-24T14:31:29.696Z,17.50
2023-03-24T14:34:05.865Z,17.40
2023-03-24T14:36:39.808Z,17.30
2023-03-24T14:39:31.982Z,17.20
2023-03-24T14:41:59.449Z,17.20
2023-03-24T14:44:44.805Z,17.10
2023-03-24T14:47:15.915Z,16.80
2023-03-24T14:49:46.093Z,16.40
2023-03-24T14:52:40.179Z,16.00
2023-03-24T14:55:16.539Z,16.40
2023-03-24T14:57:47.238Z,16.50
2023-03-24T15:00:26.048Z,16.10
2023-03-24T15:02:58.489Z,16.40
2023-03-24T15:05:31.070Z,16.50
2023-03-24T15:08:18.221Z,16.30
2023-03-24T15:10:53.683Z,16.20
2023-03-24T15:13:26.574Z,16.00
2023-03-24T15:15:53.418Z,16.30
2023-03-24T15:18:22.224Z,16.10
2023-03-24T15:20:50.904Z,15.70
2023-03-24T15:23:21.286Z,15.80
2023-03-24T15:25:48.298Z,15.80
2023-03-24T15:28:30.779Z,15.60
2023-03-24T15:31:01.583Z,15.70
2023-03-24T15:33:31.234Z,15.70
2023-03-24T15:35:59.893Z,16.00
2023-03-24T15:38:32.777Z,16.00
2023-03-24T15:41:09.424Z,16.30
2023-03-24T15:43:44.718Z,16.20
2023-03-24T15:46:31.322Z,16.10
2023-03-24T15:49:00.157Z,16.20
2023-03-24T15:51:50.447Z,16.20
2023-03-24T15:54:30.884Z,16.30
2023-03-24T15:57:17.737Z,16.30
2023-03-24T15:59:58.570Z,16.20
2023-03-24T16:02:38.991Z,16.10
2023-03-24T16:05:23.738Z,16.40
2023-03-24T16:08:08.218Z,16.10
2023-03-24T16:10:42.588Z,16.40
2023-03-24T16:13:23.028Z,16.30
2023-03-24T16:15:59.386Z,16.00
2023-03-24T16:18:34.683Z,16.10
2023-03-24T16:21:02.966Z,16.30
2023-03-24T16:23:33.021Z,16.10
2023-03-24T16:25:59.912Z,16.10
2023-03-24T16:28:27.655Z,15.30
2023-03-24T16:31:01.374Z,14.60
2023-03-24T16:33:30.311Z,14.30
2023-03-24T16:35:57.273Z,14.40
2023-03-24T16:38:24.698Z,14.20
2023-03-24T16:40:54.029Z,14.30
2023-03-24T16:43:20.935Z,14.50
2023-03-24T16:45:49.411Z,14.50
2023-03-24T16:48:17.163Z,14.60
2023-03-24T16:50:47.153Z,14.70
2023-03-24T16:53:14.427Z,14.80
2023-03-24T16:55:47.767Z,14.90
2023-03-24T16:58:16.385Z,14.60
2023-03-24T17:00:43.988Z,14.60
2023-03-24T17:03:13.849Z,14.70
2023-03-24T17:05:46.660Z,14.70
2023-03-24T17:08:14.550Z,14.70
2023-03-24T17:10:43.542Z,14.60
2023-03-24T17:13:18.515Z,14.60
2023-03-24T17:15:45.343Z,14.60
2023-03-24T17:18:12.292Z,14.30
2023-03-24T17:20:41.926Z,14.30
2023-03-24T17:23:11.324Z,14.30
2023-03-24T17:25:38.327Z,14.50
2023-03-24T17:28:12.611Z,14.20
2023-03-24T17:30:39.403Z,14.50
2023-03-24T17:33:06.828Z,14.80
2023-03-24T17:35:33.691Z,14.40
2023-03-24T17:38:00.508Z,14.40
2023-03-24T17:40:27.310Z,14.20
2023-03-24T17:42:54.910Z,14.20
2023-03-24T17:45:21.739Z,14.10
2023-03-24T17:47:48.552Z,14.20
2023-03-24T17:50:15.419Z,14.20
2023-03-24T17:52:49.125Z,14.30
2023-03-24T17:55:16.971Z,14.10
2023-03-24T17:57:44.718Z,14.30
2023-03-24T18:00:14.554Z,14.30
2023-03-24T18:02:42.689Z,14.20
2023-03-24T18:05:11.783Z,14.20
2023-03-24T18:07:41.579Z,14.10
2023-03-24T18:10:09.016Z,14.30
2023-03-24T18:12:37.090Z,14.30
2023-03-24T18:15:05.188Z,14.10
2023-03-24T18:17:31.960Z,13.70
2023-03-24T18:20:07.705Z,13.90
2023-03-24T18:22:34.486Z,14.10
2023-03-24T18:25:03.747Z,13.70
2023-03-24T18:27:30.902Z,13.70
2023-03-24T18:29:57.681Z,13.70
2023-03-24T18:32:24.495Z,13.90
2023-03-24T18:34:51.278Z,13.60
2023-03-24T18:37:18.231Z,13.40
2023-03-24T18:39:44.965Z,13.90
2023-03-24T18:42:11.798Z,13.70
2023-03-24T18:44:38.503Z,13.60
2023-03-24T18:47:05.335Z,13.70
2023-03-24T18:49:32.168Z,13.80
2023-03-24T18:51:58.909Z,13.90
2023-03-24T18:54:25.848Z,13.90
2023-03-24T18:56:52.752Z,13.70
2023-03-24T18:59:19.529Z,13.90
2023-03-24T19:01:48.478Z,13.80
2023-03-24T19:04:16.501Z,13.90
2023-03-24T19:06:44.306Z,13.90
2023-03-24T19:09:12.716Z,13.90
2023-03-24T19:11:42.101Z,14.00
2023-03-24T19:14:10.566Z,13.90
2023-03-24T19:16:37.375Z,13.80
2023-03-24T19:19:04.708Z,13.90
2023-03-24T19:21:31.505Z,13.80
2023-03-24T19:23:58.511Z,13.90
2023-03-24T19:26:26.015Z,13.70
2023-03-24T19:28:53.044Z,13.90
2023-03-24T19:31:20.450Z,13.60
2023-03-24T19:33:47.842Z,13.60
2023-03-24T19:36:15.589Z,13.80
2023-03-24T19:38:42.657Z,13.70
2023-03-24T19:41:12.892Z,13.80
2023-03-24T19:43:40.042Z,13.60
2023-03-24T19:46:07.255Z,13.60
2023-03-24T19:48:34.922Z,13.70
2023-03-24T19:51:01.867Z,13.60
2023-03-24T19:53:28.963Z,13.70
2023-03-24T19:55:57.934Z,13.40
2023-03-24T19:58:25.413Z,13.30
2023-03-24T20:00:52.500Z,13.40
2023-03-24T20:03:19.364Z,13.60
2023-03-24T20:05:46.295Z,13.40
2023-03-24T20:08:13.514Z,13.70
2023-03-24T20:10:40.449Z,13.50
2023-03-24T20:13:09.150Z,13.80
2023-03-24T20:15:36.231Z,13.60
2023-03-24T20:18:03.039Z,13.70
2023-03-24T20:20:29.825Z,13.50
2023-03-24T20:22:56.551Z,13.60
2023-03-24T20:25:24.107Z,13.70
2023-03-24T20:27:50.986Z,13.80
2023-03-24T20:30:20.166Z,13.90
2023-03-24T20:32:47.524Z,13.80
2023-03-24T20:35:14.344Z,13.90
2023-03-24T20:37:41.198Z,13.80
2023-03-24T20:40:09.635Z,13.80
2023-03-24T20:42:37.293Z,13.80
2023-03-24T20:45:06.059Z,13.70
2023-03-24T20:47:32.991Z,13.60
2023-03-24T20:49:59.763Z,13.60
2023-03-24T20:52:27.208Z,13.60
2023-03-24T20:54:54.559Z,13.70
2023-03-24T20:57:21.413Z,13.40
2023-03-24T20:59:48.765Z,13.30
2023-03-24T21:02:16.152Z,13.80
2023-03-24T21:04:43.156Z,13.50
2023-03-24T21:07:10.126Z,13.60
2023-03-24T21:09:37.013Z,13.60
2023-03-24T21:12:06.464Z,13.70
2023-03-24T21:14:34.109Z,13.70
2023-03-24T21:17:01.578Z,13.80
2023-03-24T21:19:28.739Z,13.60
2023-03-24T21:21:56.105Z,13.80
2023-03-24T21:24:24.258Z,13.80
2023-03-24T21:26:53.837Z,13.70
2023-03-24T21:29:22.507Z,13.70
2023-03-24T21:31:49.913Z,13.60
2023-03-24T21:34:17.146Z,13.50
2023-03-24T21:36:43.936Z,13.40
2023-03-24T21:39:12.011Z,13.70
2023-03-24T21:41:39.331Z,13.40
2023-03-24T21:44:09.265Z,13.40
2023-03-24T21:46:37.051Z,13.50
2023-03-24T21:49:05.042Z,13.50
2023-03-24T21:51:36.954Z,13.60
2023-03-24T21:54:06.943Z,13.70
2023-03-24T21:56:35.237Z,13.50
2023-03-24T21:59:02.546Z,13.40
2023-03-24T22:01:31.285Z,13.40
2023-03-24T22:03:59.022Z,13.60
2023-03-24T22:06:29.353Z,13.40
2023-03-24T22:08:58.735Z,13.50
2023-03-24T22:11:25.922Z,13.30
2023-03-24T22:13:53.206Z,13.00
2023-03-24T22:16:20.049Z,13.00
2023-03-24T22:18:47.543Z,13.00
2023-03-24T22:21:14.683Z,12.90
2023-03-24T22:23:42.789Z,13.00
2023-03-24T22:26:13.510Z,12.90
2023-03-24T22:28:40.921Z,12.80
2023-03-24T22:31:10.943Z,13.00
2023-03-24T22:33:38.595Z,13.10
2023-03-24T22:36:06.888Z,12.90
2023-03-24T22:38:34.562Z,13.10
2023-03-24T22:41:06.871Z,13.10
2023-03-24T22:43:35.189Z,13.00
2023-03-24T22:46:02.343Z,13.00
2023-03-24T22:48:29.140Z,12.80
2023-03-24T22:50:56.125Z,12.90
2023-03-24T22:53:23.221Z,13.10
2023-03-24T22:55:50.420Z,12.70
2023-03-24T22:58:17.720Z,12.70
2023-03-24T23:00:47.282Z,12.70
2023-03-24T23:03:14.176Z,12.90
2023-03-24T23:05:42.207Z,12.90
2023-03-24T23:08:09.663Z,13.00
2023-03-24T23:10:37.363Z,12.90
2023-03-24T23:13:04.269Z,12.90
2023-03-24T23:15:32.036Z,12.50
2023-03-24T23:17:59.875Z,12.80
2023-03-24T23:20:28.231Z,12.40
2023-03-24T23:22:55.821Z,12.40
2023-03-24T23:25:22.940Z,12.70
2023-03-24T23:27:49.946Z,12.40
2023-03-24T23:30:17.309Z,12.30
2023-03-24T23:32:46.932Z,12.50
2023-03-24T23:35:14.539Z,12.50
2023-03-24T23:37:41.572Z,12.40
2023-03-24T23:40:13.014Z,12.50
2023-03-24T23:42:50.096Z,12.40
2023-03-24T23:45:19.953Z,12.30
2023-03-24T23:47:49.859Z,12.40
2023-03-24T23:50:20.846Z,12.40
2023-03-24T23:52:47.972Z,12.30
2023-03-24T23:55:17.686Z,12.20
2023-03-24T23:57:46.649Z,12.20
